Maryland Heights, MO

8:25 AM CST on November 24, 2014 (GMT -0600)
KMOMARYL6 | Change Station
CLOSE
Current Station
Personal Weather Station
Location: Maryland Heights, MO
Elevation: 501 ft
Nearby Weather Stations

Elev 501 ft 38.71 °N, 90.46 °W | Updated 1 day ago

Cloudy
Cloudy
37 °F
Feels Like 28 °F
N
20
Wind Variable Wind from West
Gusts 30 mph

Today
High -- | Low -- °F
--% Chance of Precip.
Yesterday
High -- | Low -- °F
Precip. -- in
6:53 AM 4:42 PM
Waxing Crescent, 5% visible
Pressure 29.55 in
Visibility 10.0 miles
Clouds Overcast 2400 ft
Windchill 28 °F
Dew Point 27 °F
Humidity 64%
Rainfall 0.00 in
Snow Depth Not available.
UV 0.0 out of 12
Pollen .40 out of 12
Air Quality Not available.
Flu Activity Not available.
METAR KSTL 241351Z 29022G30KT 10SM OVC024 04/M01 A2955 RMK AO2 PK WND 28033/1318 SLP007 T00391011

More Conditions Fewer Conditions

Pressure 29.55 in
Visibility 10.0 miles
Clouds Overcast 2400 ft
Windchill 28 °F
Dew Point 27 °F
Humidity 64%
Rainfall 0.00 in
Snow Depth Not available.
UV 0.0 out of 12
Pollen .40 out of 12
Air Quality Not available.
Flu Activity Not available.
METAR KSTL 241351Z 29022G30KT 10SM OVC024 04/M01 A2955 RMK AO2 PK WND 28033/1318 SLP007 T00391011

More Conditions Fewer Conditions

10-Day Weather Forecast

Almanac

Astronomy

Nov. 24, 2014 Rise Set
Actual Time
Civil Twilight
Nautical Twilight
Astronomical Twilight
Moon
Length of Visible Light
Length of Day
Tomorrow will be .
, % of the Moon is Illuminated

Today's Extremes

State Highs State Lows

Community

WunderPhotos

Upload Photos

1,773,343 photos uploaded!

WunderBlogs® & News

Nearby

Air Quality

  Air Quality AQ Index Pollutant
Not available.

Snow Depth

Station Depth Elevation

Earthquake Activity

City Distance Mag. Time & Date
Minimum magnitude displayed is 2.5.

Coastal Water Temperatures

Place Temperature

Nearby Weather Stations